createdAt,value
2022-09-26T00:01:39.289Z,3.05
2022-09-26T00:04:10.340Z,2.85
2022-09-26T00:06:38.354Z,2.88
2022-09-26T00:09:06.530Z,3.13
2022-09-26T00:11:36.032Z,3.17
2022-09-26T00:14:06.136Z,3.35
2022-09-26T00:16:34.241Z,2.75
2022-09-26T00:19:04.462Z,3.20
2022-09-26T00:21:32.838Z,3.00
2022-09-26T00:24:02.303Z,3.00
2022-09-26T00:26:32.212Z,2.95
2022-09-26T00:29:02.238Z,3.20
2022-09-26T00:31:33.635Z,2.97
2022-09-26T00:34:03.821Z,2.60
2022-09-26T00:36:37.922Z,2.72
2022-09-26T00:39:08.381Z,3.08
2022-09-26T00:41:37.598Z,3.03
2022-09-26T00:44:38.046Z,3.10
2022-09-26T00:47:08.533Z,2.60
2022-09-26T00:49:43.724Z,2.58
2022-09-26T00:52:18.103Z,2.50
2022-09-26T00:54:48.902Z,2.88
2022-09-26T00:57:20.330Z,2.47
2022-09-26T00:59:51.283Z,2.85
2022-09-26T01:02:20.150Z,2.83
2022-09-26T01:04:50.168Z,3.08
2022-09-26T01:07:22.219Z,2.78
2022-09-26T01:09:51.192Z,2.40
2022-09-26T01:12:21.194Z,3.13
2022-09-26T01:14:51.726Z,2.50
2022-09-26T01:17:20.146Z,2.80
2022-09-26T01:20:00.767Z,2.72
2022-09-26T01:23:05.774Z,2.35
2022-09-26T01:25:50.113Z,2.53
2022-09-26T01:28:31.186Z,2.28
2022-09-26T01:31:07.079Z,2.85
2022-09-26T01:33:51.345Z,2.08
2022-09-26T01:36:52.539Z,2.45
2022-09-26T01:39:33.727Z,2.63
2022-09-26T01:42:16.021Z,2.30
2022-09-26T01:44:50.698Z,2.80
2022-09-26T01:47:27.589Z,1.95
2022-09-26T01:50:01.329Z,2.30
2022-09-26T01:52:37.096Z,2.53
2022-09-26T01:55:11.708Z,2.35
2022-09-26T01:57:44.367Z,2.20
2022-09-26T02:00:13.815Z,2.35
2022-09-26T02:02:45.038Z,2.00
2022-09-26T02:05:19.992Z,1.90
2022-09-26T02:07:54.754Z,1.65
2022-09-26T02:10:28.750Z,1.98
2022-09-26T02:13:01.308Z,1.70
2022-09-26T02:15:31.994Z,2.10
2022-09-26T02:18:06.894Z,2.05
2022-09-26T02:20:38.799Z,2.03
2022-09-26T02:23:06.903Z,2.22
2022-09-26T02:25:35.829Z,2.15
2022-09-26T02:28:05.072Z,1.40
2022-09-26T02:30:33.145Z,1.98
2022-09-26T02:33:03.677Z,1.83
2022-09-26T02:35:49.040Z,2.08
2022-09-26T02:38:17.447Z,1.63
2022-09-26T02:40:52.538Z,1.80
2022-09-26T02:43:43.495Z,2.00
2022-09-26T02:46:43.701Z,2.15
2022-09-26T02:49:45.815Z,1.67
2022-09-26T02:52:28.898Z,1.63
2022-09-26T02:55:07.512Z,1.33
2022-09-26T02:57:44.875Z,1.83
2022-09-26T03:00:18.673Z,1.88
2022-09-26T03:02:51.472Z,1.40
2022-09-26T03:05:23.634Z,1.73
2022-09-26T03:07:57.636Z,1.58
2022-09-26T03:10:27.930Z,1.83
2022-09-26T03:12:57.874Z,1.73
2022-09-26T03:15:28.223Z,1.40
2022-09-26T03:17:57.820Z,1.80
2022-09-26T03:20:27.277Z,1.73
2022-09-26T03:22:55.495Z,1.77
2022-09-26T03:25:26.568Z,2.05
2022-09-26T03:27:55.852Z,1.63
2022-09-26T03:30:24.629Z,1.52
2022-09-26T03:32:53.034Z,1.90
2022-09-26T03:35:21.598Z,1.70
2022-09-26T03:37:51.118Z,1.60
2022-09-26T03:40:19.367Z,1.40
2022-09-26T03:42:48.075Z,1.73
2022-09-26T03:45:16.262Z,1.30
2022-09-26T03:47:44.257Z,1.30
2022-09-26T03:50:15.149Z,1.60
2022-09-26T03:52:43.201Z,1.73
2022-09-26T03:55:12.574Z,1.40
2022-09-26T03:57:40.889Z,2.08
2022-09-26T04:00:10.267Z,1.85
2022-09-26T04:02:38.471Z,1.80
2022-09-26T04:05:07.023Z,1.80
2022-09-26T04:07:35.424Z,1.55
2022-09-26T04:10:03.413Z,2.00
2022-09-26T04:12:33.427Z,1.80
2022-09-26T04:15:02.486Z,1.98
2022-09-26T04:17:30.490Z,1.80
2022-09-26T04:19:58.481Z,1.83
2022-09-26T04:22:27.350Z,1.75
2022-09-26T04:24:55.330Z,1.92
2022-09-26T04:27:23.372Z,1.58
2022-09-26T04:29:52.750Z,1.70
2022-09-26T04:32:20.762Z,2.13
2022-09-26T04:34:48.742Z,1.75
2022-09-26T04:37:17.077Z,2.20
2022-09-26T04:39:45.117Z,2.00
2022-09-26T04:42:13.163Z,2.25
2022-09-26T04:44:41.422Z,1.65
2022-09-26T04:47:11.374Z,1.67
2022-09-26T04:49:39.409Z,1.83
2022-09-26T04:52:07.473Z,1.45
2022-09-26T04:54:38.410Z,1.30
2022-09-26T04:57:06.385Z,1.90
2022-09-26T04:59:34.419Z,1.42
2022-09-26T05:02:05.363Z,1.13
2022-09-26T05:04:34.926Z,1.50
2022-09-26T05:07:03.013Z,1.40
2022-09-26T05:09:35.685Z,1.30
2022-09-26T05:12:04.259Z,1.33
2022-09-26T05:14:32.370Z,1.10
2022-09-26T05:17:02.064Z,1.40
2022-09-26T05:19:30.078Z,1.10
2022-09-26T05:21:59.731Z,1.45
2022-09-26T05:24:45.674Z,1.25
2022-09-26T05:27:14.208Z,1.10
2022-09-26T05:29:42.309Z,1.10
2022-09-26T05:32:10.627Z,1.20
2022-09-26T05:34:38.689Z,1.10
2022-09-26T05:37:08.354Z,1.20
2022-09-26T05:39:53.946Z,1.25
2022-09-26T05:42:22.272Z,1.30
2022-09-26T05:44:50.310Z,2.65
2022-09-26T05:47:18.419Z,1.00
2022-09-26T05:49:46.417Z,1.17
2022-09-26T05:52:15.835Z,1.20
2022-09-26T05:54:43.861Z,1.20
2022-09-26T05:57:13.098Z,1.17
2022-09-26T05:59:41.140Z,1.42
2022-09-26T06:02:09.360Z,1.20
2022-09-26T06:04:37.795Z,1.13
2022-09-26T06:07:05.824Z,1.33
2022-09-26T06:09:35.257Z,1.08
2022-09-26T06:12:03.752Z,1.10
2022-09-26T06:14:32.151Z,0.98
2022-09-26T06:17:00.125Z,1.15
2022-09-26T06:19:28.098Z,1.05
2022-09-26T06:21:56.137Z,1.55
2022-09-26T06:24:24.104Z,1.25
2022-09-26T06:26:54.083Z,1.20
2022-09-26T06:29:22.097Z,1.05
2022-09-26T06:31:50.640Z,1.45
2022-09-26T06:34:18.879Z,1.33
2022-09-26T06:36:47.497Z,1.30
2022-09-26T06:39:16.219Z,1.40
2022-09-26T06:41:44.547Z,1.00
2022-09-26T06:44:13.946Z,0.75
2022-09-26T06:46:42.153Z,0.90
2022-09-26T06:49:10.241Z,1.08
2022-09-26T06:51:39.020Z,1.30
2022-09-26T06:54:07.087Z,0.98
2022-09-26T06:56:35.508Z,1.08
2022-09-26T06:59:03.778Z,0.95
2022-09-26T07:01:33.595Z,0.98
2022-09-26T07:04:02.041Z,1.20
2022-09-26T07:06:30.192Z,1.08
2022-09-26T07:09:02.626Z,0.90
2022-09-26T07:11:50.610Z,1.30
2022-09-26T07:14:20.657Z,1.08
2022-09-26T07:16:51.762Z,1.27
2022-09-26T07:19:20.151Z,1.17
2022-09-26T07:21:49.308Z,1.10
2022-09-26T07:24:17.768Z,0.95
2022-09-26T07:26:45.853Z,0.85
2022-09-26T07:29:14.084Z,1.35
2022-09-26T07:31:42.206Z,1.13
2022-09-26T07:34:14.625Z,1.15
2022-09-26T07:36:47.486Z,0.90
2022-09-26T07:39:15.800Z,0.93
2022-09-26T07:41:45.932Z,1.00
2022-09-26T07:47:20.049Z,1.30
2022-09-26T07:50:06.778Z,1.00
2022-09-26T07:52:35.088Z,1.10
2022-09-26T07:55:03.097Z,1.17
2022-09-26T07:57:35.637Z,1.20
2022-09-26T08:00:05.902Z,1.23
2022-09-26T08:02:34.181Z,1.15
2022-09-26T08:05:05.390Z,1.30
2022-09-26T08:07:35.520Z,1.08
2022-09-26T08:10:05.638Z,1.10
2022-09-26T08:12:37.224Z,1.30
2022-09-26T08:15:06.585Z,1.30
2022-09-26T08:17:34.754Z,1.10
2022-09-26T08:20:05.333Z,1.50
2022-09-26T08:22:33.468Z,1.25
2022-09-26T08:25:01.470Z,1.00
2022-09-26T08:27:34.012Z,1.73
2022-09-26T08:30:04.338Z,1.38
2022-09-26T08:32:33.881Z,1.00
2022-09-26T08:35:03.348Z,1.17
2022-09-26T08:37:31.411Z,1.10
2022-09-26T08:40:00.897Z,1.45
2022-09-26T08:42:46.983Z,1.05
2022-09-26T08:45:55.654Z,1.30
2022-09-26T08:48:39.304Z,1.15
2022-09-26T08:51:29.066Z,1.75
2022-09-26T08:54:04.626Z,1.40
2022-09-26T08:56:36.572Z,1.05
2022-09-26T08:59:07.746Z,1.30
2022-09-26T09:01:39.849Z,1.27
2022-09-26T09:04:15.109Z,1.00
2022-09-26T09:06:45.452Z,1.20
2022-09-26T09:09:17.700Z,1.30
2022-09-26T09:11:58.608Z,1.25
2022-09-26T09:14:57.910Z,1.05
2022-09-26T09:17:40.234Z,1.52
2022-09-26T09:20:17.648Z,1.48
2022-09-26T09:23:04.187Z,1.13
2022-09-26T09:25:34.253Z,1.15
2022-09-26T09:28:18.182Z,1.20
2022-09-26T09:30:49.404Z,1.40
2022-09-26T09:33:20.580Z,1.15
2022-09-26T09:35:51.487Z,1.20
2022-09-26T09:38:23.881Z,1.02
2022-09-26T09:40:59.649Z,1.08
2022-09-26T09:43:35.561Z,1.33
2022-09-26T09:46:06.686Z,1.15
2022-09-26T09:48:35.047Z,0.93
2022-09-26T09:51:39.243Z,1.55
2022-09-26T09:54:31.782Z,1.08
2022-09-26T09:57:21.858Z,0.68
2022-09-26T10:00:04.340Z,0.90
2022-09-26T10:02:40.305Z,1.40
2022-09-26T10:05:22.521Z,1.30
2022-09-26T10:07:50.999Z,1.15
2022-09-26T10:10:26.061Z,0.90
2022-09-26T10:12:55.875Z,1.00
2022-09-26T10:15:27.471Z,1.08
2022-09-26T10:18:23.521Z,1.25
2022-09-26T10:20:54.292Z,1.00
2022-09-26T10:23:30.706Z,0.98
2022-09-26T10:26:03.606Z,0.98
2022-09-26T10:28:37.843Z,0.90
2022-09-26T10:31:09.479Z,1.15
2022-09-26T10:33:44.035Z,1.10
2022-09-26T10:36:20.893Z,1.08
2022-09-26T10:39:12.191Z,1.02
2022-09-26T10:41:45.010Z,0.70
2022-09-26T10:44:24.305Z,0.90
2022-09-26T10:46:56.767Z,0.82
2022-09-26T10:49:31.274Z,0.85
2022-09-26T10:52:13.500Z,1.10
2022-09-26T10:54:50.239Z,0.80
2022-09-26T10:57:28.205Z,0.80
2022-09-26T10:59:58.581Z,0.90
2022-09-26T11:02:29.235Z,0.90
2022-09-26T11:05:19.019Z,0.60
2022-09-26T11:07:49.958Z,0.60
2022-09-26T11:10:24.203Z,0.80
2022-09-26T11:13:16.140Z,0.95
2022-09-26T11:15:54.522Z,0.90
2022-09-26T11:18:32.345Z,0.80
2022-09-26T11:21:23.099Z,0.63
2022-09-26T11:24:04.545Z,1.00
2022-09-26T11:26:38.316Z,0.55
2022-09-26T11:29:16.749Z,0.93
2022-09-26T11:31:45.527Z,1.00
2022-09-26T11:34:17.809Z,0.90
2022-09-26T11:37:13.457Z,1.23
2022-09-26T11:39:58.337Z,0.93
2022-09-26T11:42:36.834Z,0.90
2022-09-26T11:45:15.742Z,0.80
2022-09-26T11:48:19.894Z,1.00
2022-09-26T11:50:57.525Z,0.80
2022-09-26T11:53:53.361Z,1.10
2022-09-26T11:56:44.033Z,0.70
2022-09-26T11:59:31.662Z,0.73
2022-09-26T12:02:20.162Z,0.80
2022-09-26T12:05:17.506Z,0.93
2022-09-26T12:07:53.664Z,0.63
2022-09-26T12:10:32.236Z,0.80
2022-09-26T12:13:13.605Z,0.80
2022-09-26T12:15:55.119Z,0.95
2022-09-26T12:18:32.810Z,1.05
2022-09-26T12:21:14.083Z,0.47
2022-09-26T12:23:48.787Z,0.70
2022-09-26T12:26:23.477Z,0.90
2022-09-26T12:29:16.825Z,0.90
2022-09-26T12:32:06.356Z,0.80
2022-09-26T12:34:58.695Z,0.80
2022-09-26T12:38:00.277Z,0.82
2022-09-26T12:40:37.856Z,0.52
2022-09-26T12:43:29.413Z,0.65
2022-09-26T12:46:10.394Z,0.70
2022-09-26T12:48:50.516Z,0.77
2022-09-26T12:51:28.686Z,0.45
2022-09-26T12:54:19.079Z,0.80
2022-09-26T12:56:54.763Z,0.90
2022-09-26T12:59:38.839Z,0.93
2022-09-26T13:02:43.477Z,0.80
2022-09-26T13:05:32.016Z,0.90
2022-09-26T13:08:09.948Z,0.75
2022-09-26T13:10:44.566Z,0.60
2022-09-26T13:13:45.259Z,0.75
2022-09-26T13:16:27.752Z,1.00
2022-09-26T13:19:00.132Z,1.02
2022-09-26T13:21:45.539Z,0.82
2022-09-26T13:24:21.657Z,0.95
2022-09-26T13:26:54.898Z,0.80
2022-09-26T13:29:27.959Z,0.88
2022-09-26T13:32:05.630Z,0.70
2022-09-26T13:34:39.864Z,0.82
2022-09-26T13:37:20.932Z,0.80
2022-09-26T13:39:56.971Z,0.95
2022-09-26T13:42:36.411Z,0.70
2022-09-26T13:45:17.980Z,0.90
2022-09-26T13:47:49.943Z,0.68
2022-09-26T13:50:24.961Z,0.90
2022-09-26T13:53:06.893Z,0.60
2022-09-26T13:55:36.543Z,0.90
2022-09-26T13:58:10.978Z,0.70
2022-09-26T14:00:53.204Z,0.70
2022-09-26T14:03:40.154Z,0.70
2022-09-26T14:06:18.073Z,0.73
2022-09-26T14:09:27.726Z,0.75
2022-09-26T14:12:19.780Z,0.70
2022-09-26T14:15:07.397Z,0.75
2022-09-26T14:18:21.242Z,0.73
2022-09-26T14:21:09.008Z,0.60
2022-09-26T14:23:40.524Z,0.80
2022-09-26T14:26:14.150Z,0.90
2022-09-26T14:28:51.677Z,0.70
2022-09-26T14:31:38.690Z,1.02
2022-09-26T14:34:16.974Z,1.00
2022-09-26T14:36:46.268Z,0.70
2022-09-26T14:39:28.949Z,0.88
2022-09-26T14:41:59.115Z,0.60
2022-09-26T14:44:36.370Z,0.60
2022-09-26T14:47:12.815Z,0.55
2022-09-26T14:49:41.392Z,0.80
2022-09-26T14:52:19.023Z,0.88
2022-09-26T14:54:47.950Z,0.65
2022-09-26T14:57:23.256Z,0.68
2022-09-26T14:59:52.889Z,0.73
2022-09-26T15:02:28.599Z,0.57
2022-09-26T15:05:13.966Z,1.00
2022-09-26T15:07:47.826Z,1.20
2022-09-26T15:10:24.481Z,0.80
2022-09-26T15:13:00.237Z,1.02
2022-09-26T15:15:40.633Z,0.77
2022-09-26T15:18:14.812Z,0.70
2022-09-26T15:20:49.529Z,0.68
2022-09-26T15:23:26.624Z,1.00
2022-09-26T15:25:56.443Z,0.73
2022-09-26T15:28:25.895Z,1.17
2022-09-26T15:31:21.370Z,0.82
2022-09-26T15:33:52.003Z,0.70
2022-09-26T15:36:21.112Z,0.90
2022-09-26T15:38:50.385Z,0.75
2022-09-26T15:41:40.640Z,1.08
2022-09-26T15:44:08.958Z,0.77
2022-09-26T15:46:38.865Z,0.70
2022-09-26T15:49:14.418Z,0.70
2022-09-26T15:51:44.517Z,0.77
2022-09-26T15:54:21.778Z,0.88
2022-09-26T15:56:52.039Z,0.80
2022-09-26T15:59:23.050Z,0.80
2022-09-26T16:01:53.251Z,0.93
2022-09-26T16:04:22.839Z,0.90
2022-09-26T16:06:59.316Z,0.82
2022-09-26T16:09:33.635Z,0.98
2022-09-26T16:12:04.730Z,0.55
2022-09-26T16:14:41.604Z,0.90
2022-09-26T16:17:22.152Z,1.10
2022-09-26T16:19:53.103Z,0.90
2022-09-26T16:22:38.901Z,0.75
2022-09-26T16:25:35.177Z,0.80
2022-09-26T16:28:39.795Z,0.90
2022-09-26T16:31:18.827Z,1.00
2022-09-26T16:33:52.394Z,0.82
2022-09-26T16:36:23.520Z,1.20
2022-09-26T16:38:54.223Z,0.52
2022-09-26T16:41:56.478Z,0.93
2022-09-26T16:44:28.805Z,1.02
2022-09-26T16:47:03.222Z,1.00
2022-09-26T16:49:46.161Z,0.70
2022-09-26T16:52:34.860Z,0.80
2022-09-26T16:55:05.998Z,1.10
2022-09-26T16:57:36.545Z,0.80
2022-09-26T17:00:26.249Z,1.27
2022-09-26T17:02:54.616Z,0.82
2022-09-26T17:05:24.040Z,0.50
2022-09-26T17:07:52.218Z,0.70
2022-09-26T17:10:24.003Z,0.57
2022-09-26T17:12:53.274Z,0.52
2022-09-26T17:15:28.123Z,0.63
2022-09-26T17:17:57.105Z,0.68
2022-09-26T17:20:26.965Z,0.70
2022-09-26T17:22:55.756Z,0.70
2022-09-26T17:25:25.208Z,0.60
2022-09-26T17:27:58.058Z,0.57
2022-09-26T17:30:26.198Z,0.60
2022-09-26T17:32:54.717Z,0.70
2022-09-26T17:35:29.889Z,0.68
2022-09-26T17:37:58.498Z,0.95
2022-09-26T17:40:29.557Z,0.60
2022-09-26T17:43:00.329Z,0.70
2022-09-26T17:45:30.446Z,0.82
2022-09-26T17:48:01.291Z,0.73
2022-09-26T17:50:32.691Z,0.80
2022-09-26T17:53:03.496Z,0.70
2022-09-26T17:55:32.489Z,0.63
2022-09-26T17:58:02.349Z,0.70
2022-09-26T18:00:34.397Z,0.90
2022-09-26T18:03:05.035Z,0.57
2022-09-26T18:05:37.533Z,0.70
2022-09-26T18:08:10.262Z,0.70
2022-09-26T18:10:42.000Z,0.75
2022-09-26T18:13:15.463Z,0.50
2022-09-26T18:15:43.604Z,0.77
2022-09-26T18:18:15.993Z,0.65
2022-09-26T18:20:45.620Z,0.50
2022-09-26T18:23:17.996Z,0.60
2022-09-26T18:25:49.095Z,0.50
2022-09-26T18:28:20.480Z,0.70
2022-09-26T18:30:56.887Z,0.70
2022-09-26T18:33:28.852Z,0.55
2022-09-26T18:35:59.021Z,0.60
2022-09-26T18:38:27.354Z,0.70
2022-09-26T18:40:58.972Z,0.55
2022-09-26T18:43:36.527Z,0.73
2022-09-26T18:46:09.648Z,0.80
2022-09-26T18:48:38.292Z,1.00
2022-09-26T18:51:08.391Z,0.50
2022-09-26T18:53:37.587Z,0.60
2022-09-26T18:56:24.067Z,0.40
2022-09-26T18:58:52.167Z,0.60
2022-09-26T19:01:27.940Z,0.77
2022-09-26T19:03:58.916Z,0.40
2022-09-26T19:06:32.248Z,0.60
2022-09-26T19:09:03.021Z,0.60
2022-09-26T19:11:35.008Z,0.70
2022-09-26T19:14:12.407Z,0.70
2022-09-26T19:16:40.496Z,0.68
2022-09-26T19:19:08.765Z,0.60
2022-09-26T19:21:42.399Z,0.50
2022-09-26T19:24:20.810Z,0.60
2022-09-26T19:26:52.613Z,0.30
2022-09-26T19:29:28.671Z,0.80
2022-09-26T19:31:57.528Z,0.57
2022-09-26T19:34:30.356Z,0.70
2022-09-26T19:37:03.951Z,0.40
2022-09-26T19:39:32.912Z,0.50
2022-09-26T19:42:01.698Z,0.43
2022-09-26T19:44:29.907Z,0.50
2022-09-26T19:46:59.873Z,0.60
2022-09-26T19:49:30.394Z,0.57
2022-09-26T19:52:01.358Z,0.60
2022-09-26T19:54:31.138Z,0.50
2022-09-26T19:56:59.494Z,0.70
2022-09-26T19:59:27.847Z,0.70
2022-09-26T20:01:56.215Z,0.60
2022-09-26T20:04:24.320Z,0.80
2022-09-26T20:06:52.386Z,0.70
2022-09-26T20:09:21.375Z,0.77
2022-09-26T20:11:50.839Z,0.57
2022-09-26T20:14:24.502Z,0.80
2022-09-26T20:16:53.862Z,0.77
2022-09-26T20:19:32.066Z,0.95
2022-09-26T20:22:02.446Z,0.70
2022-09-26T20:24:32.180Z,0.52
2022-09-26T20:27:04.544Z,0.60
2022-09-26T20:29:54.010Z,0.47
2022-09-26T20:32:22.333Z,0.70
2022-09-26T20:34:50.309Z,0.90
2022-09-26T20:37:20.242Z,0.85
2022-09-26T20:39:48.509Z,0.80
2022-09-26T20:42:19.963Z,0.70
2022-09-26T20:44:50.834Z,0.70
2022-09-26T20:47:21.161Z,0.68
2022-09-26T20:49:52.931Z,0.75
2022-09-26T20:52:23.304Z,0.60
2022-09-26T20:54:52.152Z,0.82
2022-09-26T20:57:22.282Z,0.63
2022-09-26T20:59:51.061Z,0.90
2022-09-26T21:02:28.010Z,0.90
2022-09-26T21:04:57.007Z,0.90
2022-09-26T21:07:25.793Z,0.70
2022-09-26T21:09:53.807Z,1.05
2022-09-26T21:12:23.539Z,0.70
2022-09-26T21:14:51.833Z,0.57
2022-09-26T21:17:22.591Z,1.02
2022-09-26T21:19:51.692Z,0.88
2022-09-26T21:22:24.089Z,1.10
2022-09-26T21:24:54.074Z,1.08
2022-09-26T21:27:24.378Z,0.80
2022-09-26T21:29:52.382Z,0.60
2022-09-26T21:32:24.079Z,0.90
2022-09-26T21:34:57.482Z,0.60
2022-09-26T21:37:25.610Z,0.50
2022-09-26T21:39:53.658Z,0.57
2022-09-26T21:42:23.507Z,0.80
2022-09-26T21:44:56.878Z,0.77
2022-09-26T21:47:25.333Z,0.90
2022-09-26T21:49:53.692Z,1.25
2022-09-26T21:52:28.152Z,1.35
2022-09-26T21:54:58.846Z,1.10
2022-09-26T21:57:31.382Z,0.93
2022-09-26T22:00:00.203Z,1.00
2022-09-26T22:02:28.505Z,0.60
2022-09-26T22:04:56.494Z,0.90
2022-09-26T22:07:24.585Z,0.90
2022-09-26T22:09:52.671Z,0.90
2022-09-26T22:12:21.067Z,0.80
2022-09-26T22:14:50.863Z,0.93
2022-09-26T22:17:18.938Z,0.60
2022-09-26T22:19:46.947Z,0.82
2022-09-26T22:22:17.335Z,0.90
2022-09-26T22:24:45.702Z,0.80
2022-09-26T22:27:13.981Z,0.80
2022-09-26T22:29:42.382Z,0.90
2022-09-26T22:32:11.875Z,0.85
2022-09-26T22:34:39.838Z,0.88
2022-09-26T22:37:07.864Z,0.60
2022-09-26T22:39:35.865Z,1.10
2022-09-26T22:42:04.290Z,0.90
2022-09-26T22:44:32.319Z,0.90
2022-09-26T22:47:00.765Z,0.77
2022-09-26T22:49:30.193Z,1.25
2022-09-26T22:51:58.163Z,1.00
2022-09-26T22:54:26.258Z,0.60
2022-09-26T22:56:54.354Z,0.80
2022-09-26T22:59:22.366Z,0.85
2022-09-26T23:01:51.783Z,0.60
2022-09-26T23:04:20.191Z,0.82
2022-09-26T23:06:49.698Z,0.70
2022-09-26T23:09:17.693Z,0.50
2022-09-26T23:11:47.306Z,0.63
2022-09-26T23:14:15.736Z,0.85
2022-09-26T23:16:43.833Z,0.70
2022-09-26T23:19:12.189Z,0.60
2022-09-26T23:21:40.447Z,0.75
2022-09-26T23:24:10.069Z,0.57
2022-09-26T23:26:38.387Z,0.63
2022-09-26T23:29:06.479Z,0.47
2022-09-26T23:31:34.874Z,0.77
2022-09-26T23:34:03.064Z,0.60
2022-09-26T23:36:31.427Z,0.60
2022-09-26T23:38:59.723Z,0.57
2022-09-26T23:41:29.260Z,0.45
2022-09-26T23:43:57.599Z,0.60
2022-09-26T23:46:26.152Z,0.73
2022-09-26T23:48:54.489Z,0.60
2022-09-26T23:51:22.559Z,0.73
2022-09-26T23:53:50.664Z,0.43
2022-09-26T23:56:19.263Z,0.65
2022-09-26T23:58:48.983Z,0.82
